Latest Weather Observations for Cape Nelson

IDV60801

Issued at 8:02 am EST Saturday 24 August 2019 (issued every 10 minutes, with the page automatically refreshed every 10 minutes)

About weather observations | Map of weather stations | Latest weather observations for VIC | Other Formats
Station Details ID: 090184 Name: CAPE NELSON LIGHTHOUSE Lat: -38.43 Lon: 141.54 Height: 45.4 m
Data from the previous 72 hours. | See also: Recent months at Cape Nelson
Date/Time
EST
Temp
°C
App
Temp
°C
Dew
Point
°C
Rel
Hum
%
Delta-T
°C
Wind Press
QNH
hPa
Press
MSL
hPa
Rain since
9am
mm
Dir  Spd
km/h
Gust
km/h
Spd
kts
Gust
kts
24/08:00am 12.8 5.5 4.5 57 3.8 NNW 32 63 17 34 1009.9 1009.9 0.0
24/07:54am 12.6 5.4 4.8 59 3.6 NNW 32 56 17 30 1010.0 1010.0 0.0
24/07:30am 11.3 4.9 5.2 66 2.8 NNW 28 44 15 24 1010.1 1010.1 0.0
24/07:00am 10.9 4.2 5.4 69 2.5 NNW 30 43 16 23 1010.2 1010.2 0.0
24/06:30am 10.7 4.4 5.7 71 2.3 NNW 28 43 15 23 1010.6 1010.6 0.0
24/06:00am 11.0 4.3 5.5 69 2.5 N 30 43 16 23 1010.4 1010.4 0.0
24/05:48am 11.0 4.6 5.3 68 2.6 N 28 46 15 25 1010.4 1010.4 0.0
24/05:30am 10.9 4.1 5.2 68 2.6 N 30 44 16 24 1010.7 1010.7 0.0
24/05:00am 10.9 4.5 5.4 69 2.5 N 28 39 15 21 1011.0 1011.0 0.0
24/04:30am 11.3 4.9 5.4 67 2.7 NNW 28 44 15 24 1011.2 1011.2 0.0
24/04:00am 11.2 4.9 5.7 69 2.6 NNW 28 41 15 22 1011.4 1011.4 0.0
24/03:30am 11.1 4.6 6.3 72 2.3 NNW 30 43 16 23 1011.9 1011.9 0.0
24/03:00am 10.7 4.2 6.3 74 2.1 NNW 30 44 16 24 1012.5 1012.5 0.0
24/02:49am 10.6 4.5 6.4 75 2.0 NNW 28 46 15 25 1012.7 1012.7 0.0
24/02:30am 10.4 4.6 6.2 75 2.0 N 26 39 14 21 1013.0 1013.0 0.0
24/02:00am 10.9 4.9 5.4 69 2.5 NNW 26 44 14 24 1013.8 1013.8 0.0
24/01:40am 11.8 4.7 5.4 65 3.0 NNW 32 50 17 27 1014.1 1014.1 0.0
24/01:30am 11.6 5.3 5.5 66 2.8 NNW 28 44 15 24 1014.3 1014.3 0.0
24/01:00am 11.5 5.9 5.4 66 2.8 NNW 24 35 13 19 1014.8 1014.8 0.0
24/12:33am 11.7 5.3 5.3 65 3.0 NNW 28 48 15 26 1015.0 1015.0 0.0
24/12:30am 11.6 5.6 5.3 65 2.9 NNW 26 39 14 21 1015.1 1015.1 0.0
24/12:00am 11.9 5.5 5.3 64 3.0 NNW 28 43 15 23 1015.1 1015.1 0.0
 
Date/Time
EST
Temp
°C
App
Temp
°C
Dew
Point
°C
Rel
Hum
%
Delta-T
°C
Wind Press
QNH
hPa
Press
MSL
hPa
Rain since
9am
mm
Dir  Spd
km/h
Gust
km/h
Spd
kts
Gust
kts
23/11:49pm 11.7 5.4 5.6 66 2.8 NNW 28 46 15 25 1015.2 1015.2 0.0
23/11:30pm 11.9 4.8 5.5 65 3.0 NNW 32 44 17 24 1015.3 1015.3 0.0
23/11:00pm 11.7 5.2 4.9 63 3.1 NNW 28 48 15 26 1015.5 1015.5 0.0
23/10:55pm 11.9 5.0 4.6 61 3.3 NNW 30 48 16 26 1015.5 1015.5 0.0
23/10:30pm 12.0 4.5 4.5 60 3.4 NNW 33 48 18 26 1015.7 1015.7 0.0
23/10:00pm 11.8 4.9 4.8 62 3.2 NNW 30 43 16 23 1016.2 1016.2 0.0
23/09:30pm 11.6 5.4 6.1 69 2.6 NNW 28 43 15 23 1016.7 1016.7 0.0
23/09:00pm 11.5 6.2 6.8 73 2.2 NNW 24 33 13 18 1017.1 1017.1 0.0
23/08:30pm 11.6 6.8 7.3 75 2.1 NNW 22 35 12 19 1017.2 1017.2 0.0
23/08:00pm 11.6 6.8 7.3 75 2.1 NW 22 35 12 19 1017.4 1017.4 0.0
23/07:30pm 11.4 7.5 7.1 75 2.1 NNW 17 22 9 12 1017.3 1017.3 0.0
23/07:00pm 11.5 7.5 6.8 73 2.2 NNW 17 24 9 13 1017.5 1017.5 0.0
23/06:30pm 11.9 7.9 6.8 71 2.4 NNW 17 28 9 15 1017.7 1017.7 0.0
23/06:00pm 12.5 8.0 6.8 68 2.7 NNW 20 30 11 16 1017.9 1017.9 0.0
23/05:30pm 13.0 6.9 6.6 65 3.1 NW 28 41 15 22 1017.9 1017.9 0.0
23/05:00pm 13.1 8.3 7.3 68 2.8 NW 22 32 12 17 1018.1 1018.1 0.0
23/04:30pm 13.1 8.2 7.1 67 2.9 NW 22 32 12 17 1018.1 1018.1 0.0
23/04:00pm 13.3 7.6 6.9 65 3.1 NW 26 37 14 20 1018.3 1018.3 0.0
23/03:30pm 13.6 8.0 7.2 65 3.1 NW 26 37 14 20 1018.6 1018.6 0.0
23/03:00pm 14.1 9.0 7.6 65 3.2 WNW 24 33 13 18 1018.8 1018.9 0.0
23/02:30pm 15.1 9.7 7.9 62 3.6 WNW 26 41 14 22 1018.9 1019.0 0.0
23/02:00pm 14.5 8.2 7.5 63 3.5 NW 30 39 16 21 1019.0 1019.1 0.0
23/01:30pm 15.0 9.5 7.5 61 3.7 NW 26 39 14 21 1019.5 1019.6 0.0
23/01:00pm 14.9 9.8 7.5 61 3.7 NW 24 37 13 20 1020.1 1020.2 0.0
23/12:30pm 13.5 7.8 6.8 64 3.2 NW 26 39 14 21 1020.4 1020.5 0.0
23/12:00pm 12.6 6.5 6.4 66 2.9 NW 28 41 15 22 1021.2 1021.3 0.0
23/11:30am 12.6 5.7 6.6 67 2.9 NW 32 46 17 25 1021.7 1021.8 0.0
23/11:00am 11.6 5.1 6.5 71 2.4 NW 30 41 16 22 1022.3 1022.4 0.0
23/10:30am 10.9 3.8 5.4 69 2.5 NW 32 50 17 27 1022.7 1022.8 0.0
23/10:29am 10.9 4.2 5.7 70 2.4 NW 30 50 16 27 1022.8 1022.9 0.0
23/10:00am 10.5 4.2 5.7 72 2.2 NW 28 35 15 19 1023.4 1023.5 0.0
23/09:30am 10.2 4.3 5.6 73 2.1 NW 26 37 14 20 1023.7 1023.8 0.0
23/09:00am 9.7 5.2 5.9 77 1.7 NW 19 28 10 15 1024.0 1024.1 0.6
23/08:30am 9.4 5.2 5.9 79 1.6 NW 17 22 9 12 1024.3 1024.4 0.6
23/08:00am 9.3 5.2 6.2 81 1.4 NNW 17 24 9 13 1024.2 1024.3 0.6
23/07:30am 9.2 4.6 6.3 82 1.3 NNW 20 28 11 15 1024.2 1024.3 0.6
23/07:00am 9.2 5.6 6.6 84 1.2 NNW 15 24 8 13 1024.2 1024.3 0.6
23/06:30am 9.1 5.5 6.7 85 1.1 NNW 15 22 8 12 1024.0 1024.1 0.6
23/06:00am 9.1 5.2 6.9 86 1.0 NNW 17 24 9 13 1024.0 1024.1 0.6
23/05:30am 9.1 5.2 7.2 88 0.9 NNW 17 22 9 12 1024.0 1024.1 0.6
23/05:00am 9.1 5.7 7.7 91 0.7 NNW 15 20 8 11 1024.1 1024.2 0.6
23/04:30am 9.4 5.4 8.3 93 0.5 NNW 19 26 10 14 1024.2 1024.3 0.6
23/04:00am 9.6 7.2 8.8 95 0.4 NW 11 15 6 8 1024.4 1024.5 0.6
23/03:30am 9.7 7.4 9.1 96 0.3 NW 11 17 6 9 1024.7 1024.8 0.6
23/03:00am 9.6 6.2 9.0 96 0.3 NNW 17 22 9 12 1024.9 1025.0 0.6
23/02:30am 9.4 7.4 8.6 95 0.4 N 9 15 5 8 1025.1 1025.2 0.4
23/02:00am 9.7 7.0 8.9 95 0.4 NNW 13 19 7 10 1025.5 1025.6 0.4
23/01:30am 9.5 7.1 8.6 94 0.4 NW 11 13 6 7 1025.7 1025.8 0.2
23/01:00am 9.4 7.3 8.3 93 0.5 N 9 15 5 8 1025.8 1025.9 0.2
23/12:30am 9.4 7.3 8.2 92 0.6 NNW 9 13 5 7 1026.1 1026.2 0.2
23/12:00am 9.3 7.6 7.7 90 0.8 NW 6 9 3 5 1026.3 1026.4 0.2
 
Date/Time
EST
Temp
°C
App
Temp
°C
Dew
Point
°C
Rel
Hum
%
Delta-T
°C
Wind Press
QNH
hPa
Press
MSL
hPa
Rain since
9am
mm
Dir  Spd
km/h
Gust
km/h
Spd
kts
Gust
kts
22/11:30pm 9.8 7.7 8.1 89 0.8 NW 9 15 5 8 1026.3 1026.4 0.2
22/11:00pm 10.5 8.2 8.9 90 0.8 WNW 11 17 6 9 1026.5 1026.6 0.2
22/10:30pm 10.9 8.6 9.0 88 0.9 WNW 11 15 6 8 1027.0 1027.0 0.2
22/10:00pm 11.1 8.2 8.3 83 1.4 W 13 20 7 11 1027.0 1027.0 0.2
22/09:30pm 11.3 10.5 8.0 80 1.6 NE 2 11 1 6 1027.1 1027.1 0.2
22/09:00pm 11.3 9.6 7.6 78 1.8 ESE 6 13 3 7 1027.1 1027.1 0.2
22/08:30pm 11.1 9.1 7.2 77 1.9 NE 7 11 4 6 1027.2 1027.2 0.2
22/08:00pm 11.3 8.9 7.2 76 2.0 E 9 19 5 10 1027.1 1027.1 0.2
22/07:30pm 11.1 9.6 7.0 76 2.0 E 4 9 2 5 1027.2 1027.2 0.2
22/07:00pm 11.3 8.9 6.8 74 2.1 S 9 15 5 8 1027.2 1027.2 0.2
22/06:30pm 11.0 9.7 6.0 71 2.3 SSE 2 7 1 4 1027.1 1027.1 0.2
22/06:00pm 11.1 8.5 6.0 71 2.4 SSE 9 15 5 8 1026.9 1026.9 0.2
22/05:30pm 11.2 8.5 5.7 69 2.6 S 9 13 5 7 1026.8 1026.8 0.2
22/05:00pm 11.4 8.8 5.9 69 2.5 SSE 9 20 5 11 1026.7 1026.7 0.2
22/04:30pm 11.4 8.7 5.7 68 2.6 E 9 15 5 8 1026.8 1026.8 0.2
22/04:00pm 11.6 8.6 5.9 68 2.6 SSE 11 19 6 10 1026.5 1026.6 0.2
22/03:30pm 12.1 8.8 6.2 67 2.8 S 13 17 7 9 1026.4 1026.5 0.2
22/03:00pm 12.3 8.5 5.7 64 3.1 S 15 20 8 11 1026.2 1026.3 0.2
22/02:30pm 12.4 7.8 5.6 63 3.2 S 19 26 10 14 1026.1 1026.2 0.2
22/02:00pm 12.3 7.7 5.5 63 3.1 S 19 24 10 13 1026.1 1026.2 0.2
22/01:30pm 12.6 7.5 6.0 64 3.1 S 22 30 12 16 1026.2 1026.3 0.0
22/01:00pm 12.5 7.2 5.2 61 3.4 S 22 30 12 16 1026.2 1026.3 0.0
22/12:30pm 12.3 6.7 5.5 63 3.2 S 24 32 13 17 1026.4 1026.5 0.0
22/12:00pm 12.1 5.9 6.2 67 2.8 S 28 39 15 21 1026.5 1026.6 0.0
22/11:30am 12.0 5.4 6.1 67 2.8 S 30 41 16 22 1026.7 1026.7 0.0
22/11:00am 11.9 6.6 6.6 70 2.5 SSE 24 37 13 20 1026.5 1026.6 0.0
22/10:30am 12.0 6.7 6.7 70 2.5 S 24 39 13 21 1026.1 1026.2 0.0
22/10:00am 11.9 5.1 6.8 71 2.4 S 32 43 17 23 1026.0 1026.1 0.0
22/09:30am 11.7 5.7 7.0 73 2.3 S 28 46 15 25 1025.6 1025.7 0.0
22/09:14am 11.8 5.9 7.5 75 2.1 S 28 46 15 25 1025.4 1025.5 0.0
22/09:00am 11.6 4.8 7.1 74 2.1 S 32 48 17 26 1025.2 1025.3 1.2
22/08:30am 11.3 4.4 7.4 77 1.9 S 33 46 18 25 1024.7 1024.8 1.2
22/08:00am 11.1 4.6 8.1 82 1.5 S 32 44 17 24 1024.3 1024.4 1.2
22/07:36am 11.0 5.4 8.9 87 1.0 SSE 28 54 15 29 1023.9 1024.0 1.2
22/07:30am 11.4 6.9 8.4 82 1.5 SSE 22 41 12 22 1023.5 1023.6 1.2
22/07:00am 10.8 5.8 8.2 84 1.3 SSE 24 41 13 22 1023.4 1023.5 1.2
22/06:32am 10.7 3.5 9.1 90 0.8 S 37 61 20 33 1023.4 1023.5 1.2
22/06:30am 10.6 3.7 9.0 90 0.8 S 35 61 19 33 1023.4 1023.5 1.2
22/06:00am 10.7 3.2 9.5 92 0.6 S 39 67 21 36 1023.2 1023.3 1.2
22/05:55am 11.3 4.4 9.0 86 1.1 S 35 67 19 36 1023.1 1023.2 0.8
22/05:50am 12.0 7.0 9.4 84 1.3 SSE 26 46 14 25 1023.0 1023.1 0.6
22/05:30am 12.0 7.9 8.5 79 1.7 ESE 20 33 11 18 1022.5 1022.6 0.6
22/05:00am 11.9 7.8 8.7 81 1.6 SE 20 41 11 22 1022.1 1022.2 0.6
22/04:30am 11.9 8.2 9.5 85 1.2 NE 19 39 10 21 1022.0 1022.1 0.6
22/04:00am 11.8 8.2 9.9 88 1.0 NNE 19 32 10 17 1021.8 1021.9 0.6
22/03:30am 11.5 7.2 9.2 86 1.2 ENE 22 43 12 23 1021.7 1021.8 0.6
22/03:00am 11.6 7.1 10.2 91 0.7 ESE 24 54 13 29 1021.7 1021.8 0.6
22/02:44am 11.1 5.7 9.4 89 0.9 SE 28 46 15 25 1021.5 1021.6 0.6
22/02:30am 11.8 7.3 10.2 90 0.8 NNW 24 39 13 21 1021.6 1021.7 0.6
22/02:00am 11.4 6.1 10.0 91 0.7 N 28 41 15 22 1021.4 1021.5 0.6
22/01:30am 11.5 6.5 9.6 88 1.0 NNE 26 41 14 22 1021.4 1021.5 0.6
22/01:13am 11.9 6.1 9.6 86 1.2 NW 30 52 16 28 1021.0 1021.1 0.4
22/01:06am 12.0 5.0 9.9 87 1.1 W 37 59 20 32 1021.1 1021.2 0.4
22/01:00am 12.0 4.6 9.9 87 1.1 W 39 59 21 32 1021.4 1021.5 0.4
22/12:30am 12.1 5.7 10.7 91 0.7 W 35 57 19 31 1021.2 1021.3 0.4
22/12:20am 11.8 5.6 9.9 88 1.0 WNW 33 57 18 31 1021.1 1021.2 0.4
22/12:19am 11.9 5.9 10.0 88 1.0 WNW 32 54 17 29 1021.0 1021.1 0.4
22/12:18am 12.2 6.3 10.4 89 0.9 WNW 32 54 17 29 1021.1 1021.2 0.4
22/12:11am 12.3 5.3 10.0 86 1.2 W 37 67 20 36 1020.7 1020.8 0.4
22/12:00am 12.1 4.4 10.3 89 0.9 W 41 61 22 33 1020.9 1021.0 0.4
 
Date/Time
EST
Temp
°C
App
Temp
°C
Dew
Point
°C
Rel
Hum
%
Delta-T
°C
Wind Press
QNH
hPa
Press
MSL
hPa
Rain since
9am
mm
Dir  Spd
km/h
Gust
km/h
Spd
kts
Gust
kts
21/11:30pm 12.3 2.1 10.0 86 1.2 WSW 54 76 29 41 1020.5 1020.6 0.2
21/11:02pm 12.7 2.1 10.1 84 1.3 WSW 56 74 30 40 1020.4 1020.5 0.2
21/11:00pm 12.5 1.6 9.7 83 1.4 WSW 57 74 31 40 1020.4 1020.5 0.2
21/10:30pm 12.3 3.4 10.5 89 0.9 WSW 48 67 26 36 1020.4 1020.5 0.2
21/10:00pm 12.2 1.6 10.1 87 1.1 WSW 56 76 30 41 1020.5 1020.6 0.2
21/09:31pm 12.1 1.4 10.3 89 0.9 WSW 57 76 31 41 1020.6 1020.7 0.0
21/09:30pm 12.3 1.7 10.7 90 0.8 WSW 57 74 31 40 1020.7 1020.8 0.0
21/09:00pm 12.9 4.0 10.6 86 1.2 WSW 48 72 26 39 1020.3 1020.4 0.0
21/08:30pm 13.0 3.0 10.9 87 1.1 WSW 54 72 29 39 1020.4 1020.5 0.0
21/08:00pm 12.8 4.7 10.7 87 1.1 WSW 44 65 24 35 1020.3 1020.4 0.0
21/07:30pm 12.8 5.3 10.7 87 1.1 WSW 41 61 22 33 1020.2 1020.3 0.0
21/07:00pm 12.6 5.4 10.5 87 1.1 W 39 65 21 35 1020.5 1020.6 0.0
21/06:30pm 12.6 6.6 10.7 88 1.0 W 33 54 18 29 1020.0 1020.1 0.0
21/06:00pm 12.5 5.3 10.6 88 1.0 W 39 67 21 36 1020.0 1020.1 0.0
21/05:30pm 12.4 6.1 11.0 91 0.7 W 35 56 19 30 1020.1 1020.2 0.0
21/05:00pm 12.4 6.4 10.8 90 0.8 W 33 59 18 32 1020.1 1020.2 0.0
21/04:32pm 12.2 5.8 10.8 91 0.7 W 35 54 19 29 1019.8 1019.9 0.0
21/04:30pm 12.2 5.8 10.8 91 0.7 W 35 52 19 28 1019.9 1020.0 0.0
21/04:00pm 12.3 5.7 10.0 86 1.2 W 35 54 19 29 1020.3 1020.4 0.0
21/03:30pm 12.5 5.5 10.0 85 1.3 WSW 37 61 20 33 1020.7 1020.8 0.0
21/03:00pm 12.3 4.8 9.5 83 1.4 WSW 39 57 21 31 1020.9 1021.0 0.0
21/02:46pm 12.1 5.8 9.8 86 1.2 WSW 33 52 18 28 1020.9 1021.0 0.0
21/02:30pm 12.2 6.5 9.9 86 1.2 W 30 44 16 24 1021.0 1021.1 0.0
21/02:21pm 12.4 5.6 10.5 88 1.0 WSW 37 56 20 30 1021.2 1021.3 0.0
21/02:00pm 12.2 3.7 9.4 83 1.4 WSW 44 59 24 32 1021.3 1021.4 0.0
21/01:30pm 12.6 4.4 9.8 83 1.4 WSW 43 54 23 29 1021.3 1021.4 0.0
21/01:13pm 12.7 4.1 8.8 77 2.0 WSW 44 63 24 34 1021.1 1021.2 0.0
21/01:00pm 12.5 3.3 8.2 75 2.1 WSW 46 57 25 31 1021.2 1021.3 0.0
21/12:46pm 12.4 3.9 8.7 78 1.8 WSW 43 61 23 33 1021.4 1021.5 0.0
21/12:30pm 12.4 4.4 9.1 80 1.7 WSW 41 57 22 31 1021.6 1021.7 0.0
21/12:00pm 12.4 4.7 8.7 78 1.8 WSW 39 52 21 28 1021.8 1021.9 0.0
21/11:36am 12.2 5.7 10.3 88 1.0 WSW 35 54 19 29 1022.0 1022.1 0.0
21/11:30am 12.0 5.0 10.1 88 1.0 WSW 37 54 20 29 1022.0 1022.1 0.0
21/11:20am 12.3 5.5 10.5 89 0.9 WSW 37 56 20 30 1022.2 1022.3 0.0
21/11:00am 12.6 4.8 9.6 82 1.5 WSW 41 50 22 27 1022.1 1022.2 0.0
21/10:30am 12.4 6.1 9.8 84 1.3 W 33 54 18 29 1022.1 1022.2 0.0
21/10:00am 12.5 6.1 9.5 82 1.5 W 33 52 18 28 1021.9 1022.0 0.0
21/09:30am 12.3 4.9 9.7 84 1.3 W 39 59 21 32 1021.6 1021.7 0.0
21/09:26am 12.3 4.5 9.9 85 1.2 W 41 59 22 32 1021.3 1021.4 0.0
21/09:00am 12.4 5.8 10.0 85 1.2 W 35 50 19 27 1021.6 1021.7 2.4
21/08:30am 12.1 5.9 10.0 87 1.1 W 33 56 18 30 1021.6 1021.7 2.4
21/08:08am 11.9 5.8 9.8 87 1.1 W 32 61 17 33 1021.4 1021.5 2.4

Other formats

Comma delimited format used in spreadsheet applications
http://www.bom.gov.au/fwo/IDV60801/IDV60801.94826.axf

JavaScript Object Notation format (JSON) in row-major order
http://www.bom.gov.au/fwo/IDV60801/IDV60801.94826.json

Data quality

Most of these data are generated automatically and are frequently updated. Quality checks on data are not normally performed. It is possible for incorrect values to appear. Refer to information at About Latest Weather Observations and please check the disclaimer before using these data.